Aviation Digital Data Service (ADDS)

Output produced by METARs form (0159 UTC 26 April 2017)
found at http://www.aviationweather.gov/adds/metars/
 
METAR text: KFAM 260156Z AUTO 18007KT 10SM CLR 21/11 A2956 RMK AO2 SLP001 T02060111
Conditions at: KFAM (FARMINGTON , MO, US) observed 0156 UTC 26 April 2017
Temperature: 20.6°C (69°F)
Dewpoint: 11.1°C (52°F) [RH = 54%]
Pressure (altimeter): 29.56 inches Hg (1001.1 mb)
[Sea-level pressure: 1000.1 mb]
Winds: from the S (180 degrees) at 8 MPH (7 knots; 3.6 m/s)
Visibility: 10 or more miles (16+ km)
Ceiling: at least 12,000 feet AGL
Clouds: sky clear below 12,000 feet AGL
Weather: automated observation with no human augmentation;
there may or may not be significant weather present at this time